sensor_id;sensor_type;location;lat;lon;timestamp;P1;durP1;ratioP1;P2;durP2;ratioP2
67554;SDS011;54385;53.516;49.456;2022-11-20T00:01:26;6.85;;;4.15;;
67554;SDS011;54385;53.516;49.456;2022-11-20T00:03:54;5.63;;;4.13;;
67554;SDS011;54385;53.516;49.456;2022-11-20T00:06:24;8.18;;;5.03;;
67554;SDS011;54385;53.516;49.456;2022-11-20T00:08:51;6.93;;;4.40;;
67554;SDS011;54385;53.516;49.456;2022-11-20T00:11:21;6.88;;;4.35;;
67554;SDS011;54385;53.516;49.456;2022-11-20T00:13:50;6.45;;;3.95;;
67554;SDS011;54385;53.516;49.456;2022-11-20T00:16:19;7.32;;;4.20;;
67554;SDS011;54385;53.516;49.456;2022-11-20T00:18:47;7.00;;;4.65;;
67554;SDS011;54385;53.516;49.456;2022-11-20T00:21:15;7.90;;;4.68;;
67554;SDS011;54385;53.516;49.456;2022-11-20T00:23:44;6.25;;;4.32;;
67554;SDS011;54385;53.516;49.456;2022-11-20T00:26:12;6.03;;;4.13;;
67554;SDS011;54385;53.516;49.456;2022-11-20T00:28:40;7.18;;;4.18;;
67554;SDS011;54385;53.516;49.456;2022-11-20T00:31:12;6.75;;;5.18;;
67554;SDS011;54385;53.516;49.456;2022-11-20T00:33:40;7.90;;;4.60;;
67554;SDS011;54385;53.516;49.456;2022-11-20T00:36:11;5.75;;;4.07;;
67554;SDS011;54385;53.516;49.456;2022-11-20T00:38:40;7.38;;;5.22;;
67554;SDS011;54385;53.516;49.456;2022-11-20T00:41:08;6.68;;;4.35;;
67554;SDS011;54385;53.516;49.456;2022-11-20T00:43:36;7.18;;;4.88;;
67554;SDS011;54385;53.516;49.456;2022-11-20T00:46:07;7.13;;;4.75;;
67554;SDS011;54385;53.516;49.456;2022-11-20T00:48:35;7.18;;;4.70;;
67554;SDS011;54385;53.516;49.456;2022-11-20T00:51:02;7.32;;;4.93;;
67554;SDS011;54385;53.516;49.456;2022-11-20T00:53:28;7.18;;;4.53;;
67554;SDS011;54385;53.516;49.456;2022-11-20T00:56:00;8.15;;;4.85;;
67554;SDS011;54385;53.516;49.456;2022-11-20T00:58:29;8.30;;;4.82;;
67554;SDS011;54385;53.516;49.456;2022-11-20T01:01:03;7.82;;;5.10;;
67554;SDS011;54385;53.516;49.456;2022-11-20T01:03:36;7.35;;;4.97;;
67554;SDS011;54385;53.516;49.456;2022-11-20T01:06:10;7.50;;;4.50;;
67554;SDS011;54385;53.516;49.456;2022-11-20T01:08:39;7.28;;;4.55;;
67554;SDS011;54385;53.516;49.456;2022-11-20T01:11:15;7.90;;;4.82;;
67554;SDS011;54385;53.516;49.456;2022-11-20T01:13:45;7.20;;;4.40;;
67554;SDS011;54385;53.516;49.456;2022-11-20T01:16:26;7.00;;;4.47;;
67554;SDS011;54385;53.516;49.456;2022-11-20T01:18:57;6.82;;;4.55;;
67554;SDS011;54385;53.516;49.456;2022-11-20T01:21:26;6.82;;;4.68;;
67554;SDS011;54385;53.516;49.456;2022-11-20T01:23:55;8.57;;;4.80;;
67554;SDS011;54385;53.516;49.456;2022-11-20T01:26:23;6.88;;;4.97;;
67554;SDS011;54385;53.516;49.456;2022-11-20T01:28:54;7.22;;;4.57;;
67554;SDS011;54385;53.516;49.456;2022-11-20T01:31:22;8.63;;;4.63;;
67554;SDS011;54385;53.516;49.456;2022-11-20T01:33:54;7.88;;;5.18;;
67554;SDS011;54385;53.516;49.456;2022-11-20T01:36:23;5.60;;;4.20;;
67554;SDS011;54385;53.516;49.456;2022-11-20T01:38:54;7.20;;;4.60;;
67554;SDS011;54385;53.516;49.456;2022-11-20T01:41:22;7.93;;;4.65;;
67554;SDS011;54385;53.516;49.456;2022-11-20T01:44:09;8.48;;;4.20;;
67554;SDS011;54385;53.516;49.456;2022-11-20T01:46:59;8.07;;;4.68;;
67554;SDS011;54385;53.516;49.456;2022-11-20T01:49:27;6.95;;;4.93;;
67554;SDS011;54385;53.516;49.456;2022-11-20T01:52:15;7.85;;;5.07;;
67554;SDS011;54385;53.516;49.456;2022-11-20T01:54:52;9.18;;;5.60;;
67554;SDS011;54385;53.516;49.456;2022-11-20T01:57:25;7.72;;;5.05;;
67554;SDS011;54385;53.516;49.456;2022-11-20T01:59:57;8.10;;;5.15;;
67554;SDS011;54385;53.516;49.456;2022-11-20T02:02:32;8.25;;;5.07;;
67554;SDS011;54385;53.516;49.456;2022-11-20T02:05:01;6.57;;;4.57;;
67554;SDS011;54385;53.516;49.456;2022-11-20T02:07:34;6.70;;;4.43;;
67554;SDS011;54385;53.516;49.456;2022-11-20T02:10:01;8.88;;;4.75;;
67554;SDS011;54385;53.516;49.456;2022-11-20T02:15:12;6.60;;;4.13;;
67554;SDS011;54385;53.516;49.456;2022-11-20T02:17:39;8.05;;;5.07;;
67554;SDS011;54385;53.516;49.456;2022-11-20T02:20:06;6.65;;;4.45;;
67554;SDS011;54385;53.516;49.456;2022-11-20T02:22:35;6.53;;;4.63;;
67554;SDS011;54385;53.516;49.456;2022-11-20T02:25:23;7.30;;;4.07;;
67554;SDS011;54385;53.516;49.456;2022-11-20T02:27:52;7.97;;;4.72;;
67554;SDS011;54385;53.516;49.456;2022-11-20T02:30:19;8.25;;;4.55;;
67554;SDS011;54385;53.516;49.456;2022-11-20T02:32:45;6.63;;;4.50;;
67554;SDS011;54385;53.516;49.456;2022-11-20T02:37:47;6.90;;;4.78;;
67554;SDS011;54385;53.516;49.456;2022-11-20T02:40:17;8.48;;;5.40;;
67554;SDS011;54385;53.516;49.456;2022-11-20T02:42:44;6.95;;;4.72;;
67554;SDS011;54385;53.516;49.456;2022-11-20T02:45:11;6.55;;;4.55;;
67554;SDS011;54385;53.516;49.456;2022-11-20T02:47:37;7.10;;;4.47;;
67554;SDS011;54385;53.516;49.456;2022-11-20T02:50:04;7.10;;;4.40;;
67554;SDS011;54385;53.516;49.456;2022-11-20T02:52:32;7.35;;;4.72;;
67554;SDS011;54385;53.516;49.456;2022-11-20T02:54:58;7.68;;;4.95;;
67554;SDS011;54385;53.516;49.456;2022-11-20T02:57:25;6.10;;;4.10;;
67554;SDS011;54385;53.516;49.456;2022-11-20T02:59:52;5.95;;;4.18;;
67554;SDS011;54385;53.516;49.456;2022-11-20T03:02:18;7.28;;;4.90;;
67554;SDS011;54385;53.516;49.456;2022-11-20T03:04:46;6.72;;;4.63;;
67554;SDS011;54385;53.516;49.456;2022-11-20T03:07:13;6.85;;;4.22;;
67554;SDS011;54385;53.516;49.456;2022-11-20T03:09:45;7.82;;;4.45;;
67554;SDS011;54385;53.516;49.456;2022-11-20T03:12:12;5.65;;;4.50;;
67554;SDS011;54385;53.516;49.456;2022-11-20T03:14:39;6.68;;;4.15;;
67554;SDS011;54385;53.516;49.456;2022-11-20T03:17:07;6.30;;;4.38;;
67554;SDS011;54385;53.516;49.456;2022-11-20T03:19:34;6.07;;;3.90;;
67554;SDS011;54385;53.516;49.456;2022-11-20T03:22:04;6.18;;;4.38;;
67554;SDS011;54385;53.516;49.456;2022-11-20T03:24:32;6.20;;;4.20;;
67554;SDS011;54385;53.516;49.456;2022-11-20T03:26:59;7.45;;;4.97;;
67554;SDS011;54385;53.516;49.456;2022-11-20T03:31:52;6.60;;;3.95;;
67554;SDS011;54385;53.516;49.456;2022-11-20T03:34:18;7.10;;;5.05;;
67554;SDS011;54385;53.516;49.456;2022-11-20T03:36:44;6.85;;;4.57;;
67554;SDS011;54385;53.516;49.456;2022-11-20T03:39:11;6.35;;;4.25;;
67554;SDS011;54385;53.516;49.456;2022-11-20T03:41:38;6.63;;;4.65;;
67554;SDS011;54385;53.516;49.456;2022-11-20T03:44:07;8.63;;;4.85;;
67554;SDS011;54385;53.516;49.456;2022-11-20T03:46:35;7.50;;;4.65;;
67554;SDS011;54385;53.516;49.456;2022-11-20T03:49:02;6.68;;;4.65;;
67554;SDS011;54385;53.516;49.456;2022-11-20T03:51:33;6.75;;;4.38;;
67554;SDS011;54385;53.516;49.456;2022-11-20T03:56:31;9.27;;;3.95;;
67554;SDS011;54385;53.516;49.456;2022-11-20T03:59:01;5.43;;;3.58;;
67554;SDS011;54385;53.516;49.456;2022-11-20T04:01:32;7.18;;;4.35;;
67554;SDS011;54385;53.516;49.456;2022-11-20T04:04:00;6.53;;;4.15;;
67554;SDS011;54385;53.516;49.456;2022-11-20T04:06:34;6.40;;;4.25;;
67554;SDS011;54385;53.516;49.456;2022-11-20T04:09:02;6.68;;;4.18;;
67554;SDS011;54385;53.516;49.456;2022-11-20T04:11:30;7.15;;;4.47;;
67554;SDS011;54385;53.516;49.456;2022-11-20T04:13:59;6.47;;;4.22;;
67554;SDS011;54385;53.516;49.456;2022-11-20T04:16:31;8.55;;;5.10;;
67554;SDS011;54385;53.516;49.456;2022-11-20T04:19:00;6.32;;;4.70;;
67554;SDS011;54385;53.516;49.456;2022-11-20T04:21:28;7.95;;;5.18;;
67554;SDS011;54385;53.516;49.456;2022-11-20T04:23:55;7.90;;;5.45;;
67554;SDS011;54385;53.516;49.456;2022-11-20T04:26:23;8.40;;;5.03;;
67554;SDS011;54385;53.516;49.456;2022-11-20T04:28:51;7.47;;;5.38;;
67554;SDS011;54385;53.516;49.456;2022-11-20T04:31:21;8.60;;;5.35;;
67554;SDS011;54385;53.516;49.456;2022-11-20T04:33:50;9.00;;;5.20;;
67554;SDS011;54385;53.516;49.456;2022-11-20T04:36:23;7.43;;;4.60;;
67554;SDS011;54385;53.516;49.456;2022-11-20T04:38:54;6.78;;;4.85;;
67554;SDS011;54385;53.516;49.456;2022-11-20T04:41:22;6.93;;;4.55;;
67554;SDS011;54385;53.516;49.456;2022-11-20T04:43:51;8.43;;;4.65;;
67554;SDS011;54385;53.516;49.456;2022-11-20T04:46:25;8.05;;;4.95;;
67554;SDS011;54385;53.516;49.456;2022-11-20T04:48:52;6.22;;;4.10;;
67554;SDS011;54385;53.516;49.456;2022-11-20T04:53:45;8.15;;;4.82;;
67554;SDS011;54385;53.516;49.456;2022-11-20T04:56:12;6.95;;;5.20;;
67554;SDS011;54385;53.516;49.456;2022-11-20T04:58:39;8.20;;;4.60;;
67554;SDS011;54385;53.516;49.456;2022-11-20T05:01:07;8.07;;;4.85;;
67554;SDS011;54385;53.516;49.456;2022-11-20T05:03:37;9.20;;;5.03;;
67554;SDS011;54385;53.516;49.456;2022-11-20T05:06:05;7.15;;;4.97;;
67554;SDS011;54385;53.516;49.456;2022-11-20T05:08:33;7.32;;;5.50;;
67554;SDS011;54385;53.516;49.456;2022-11-20T05:11:12;8.55;;;5.00;;
67554;SDS011;54385;53.516;49.456;2022-11-20T05:13:40;8.45;;;5.53;;
67554;SDS011;54385;53.516;49.456;2022-11-20T05:16:08;9.27;;;5.15;;
67554;SDS011;54385;53.516;49.456;2022-11-20T05:18:36;8.75;;;4.68;;
67554;SDS011;54385;53.516;49.456;2022-11-20T05:21:04;8.48;;;4.28;;
67554;SDS011;54385;53.516;49.456;2022-11-20T05:23:31;10.57;;;4.90;;
67554;SDS011;54385;53.516;49.456;2022-11-20T05:25:59;8.25;;;4.88;;
67554;SDS011;54385;53.516;49.456;2022-11-20T05:28:26;8.35;;;4.90;;
67554;SDS011;54385;53.516;49.456;2022-11-20T05:30:54;8.95;;;4.53;;
67554;SDS011;54385;53.516;49.456;2022-11-20T05:35:47;6.18;;;4.20;;
67554;SDS011;54385;53.516;49.456;2022-11-20T05:38:14;7.82;;;4.90;;
67554;SDS011;54385;53.516;49.456;2022-11-20T05:40:41;8.10;;;4.97;;
67554;SDS011;54385;53.516;49.456;2022-11-20T05:43:07;7.57;;;4.28;;
67554;SDS011;54385;53.516;49.456;2022-11-20T05:45:34;10.57;;;5.68;;
67554;SDS011;54385;53.516;49.456;2022-11-20T05:48:00;12.85;;;7.15;;
67554;SDS011;54385;53.516;49.456;2022-11-20T05:52:54;8.45;;;5.90;;
67554;SDS011;54385;53.516;49.456;2022-11-20T05:55:20;11.43;;;6.78;;
67554;SDS011;54385;53.516;49.456;2022-11-20T05:57:47;14.60;;;7.05;;
67554;SDS011;54385;53.516;49.456;2022-11-20T06:00:13;8.45;;;4.80;;
67554;SDS011;54385;53.516;49.456;2022-11-20T06:02:40;6.97;;;4.55;;
67554;SDS011;54385;53.516;49.456;2022-11-20T06:05:07;7.53;;;4.32;;
67554;SDS011;54385;53.516;49.456;2022-11-20T06:07:33;7.15;;;4.47;;
67554;SDS011;54385;53.516;49.456;2022-11-20T06:10:00;7.55;;;4.40;;
67554;SDS011;54385;53.516;49.456;2022-11-20T06:12:26;9.80;;;5.53;;
67554;SDS011;54385;53.516;49.456;2022-11-20T06:14:53;15.57;;;9.32;;
67554;SDS011;54385;53.516;49.456;2022-11-20T06:17:19;10.32;;;5.15;;
67554;SDS011;54385;53.516;49.456;2022-11-20T06:19:46;6.75;;;4.28;;
67554;SDS011;54385;53.516;49.456;2022-11-20T06:22:13;6.47;;;4.25;;
67554;SDS011;54385;53.516;49.456;2022-11-20T06:27:05;5.72;;;3.78;;
67554;SDS011;54385;53.516;49.456;2022-11-20T06:29:32;6.32;;;4.05;;
67554;SDS011;54385;53.516;49.456;2022-11-20T06:31:58;7.45;;;4.90;;
67554;SDS011;54385;53.516;49.456;2022-11-20T06:34:25;11.18;;;4.22;;
67554;SDS011;54385;53.516;49.456;2022-11-20T06:36:51;6.47;;;4.45;;
67554;SDS011;54385;53.516;49.456;2022-11-20T06:39:18;7.10;;;4.38;;
67554;SDS011;54385;53.516;49.456;2022-11-20T06:41:45;6.75;;;4.60;;
67554;SDS011;54385;53.516;49.456;2022-11-20T06:44:11;5.63;;;4.20;;
67554;SDS011;54385;53.516;49.456;2022-11-20T06:46:38;6.85;;;4.20;;
67554;SDS011;54385;53.516;49.456;2022-11-20T06:49:04;8.93;;;5.43;;
67554;SDS011;54385;53.516;49.456;2022-11-20T06:53:57;12.07;;;6.50;;
67554;SDS011;54385;53.516;49.456;2022-11-20T06:56:24;12.63;;;8.15;;
67554;SDS011;54385;53.516;49.456;2022-11-20T06:58:50;12.23;;;5.88;;
67554;SDS011;54385;53.516;49.456;2022-11-20T07:01:17;10.02;;;5.85;;
67554;SDS011;54385;53.516;49.456;2022-11-20T07:03:43;9.02;;;5.55;;
67554;SDS011;54385;53.516;49.456;2022-11-20T07:06:10;8.88;;;5.43;;
67554;SDS011;54385;53.516;49.456;2022-11-20T07:08:36;11.68;;;5.45;;
67554;SDS011;54385;53.516;49.456;2022-11-20T07:11:05;9.13;;;5.20;;
67554;SDS011;54385;53.516;49.456;2022-11-20T07:13:33;9.48;;;5.50;;
67554;SDS011;54385;53.516;49.456;2022-11-20T07:16:01;8.98;;;4.93;;
67554;SDS011;54385;53.516;49.456;2022-11-20T07:18:32;9.48;;;5.82;;
67554;SDS011;54385;53.516;49.456;2022-11-20T07:21:02;11.95;;;6.90;;
67554;SDS011;54385;53.516;49.456;2022-11-20T07:23:31;8.18;;;5.25;;
67554;SDS011;54385;53.516;49.456;2022-11-20T07:25:58;10.75;;;6.90;;
67554;SDS011;54385;53.516;49.456;2022-11-20T07:28:28;10.50;;;5.82;;
67554;SDS011;54385;53.516;49.456;2022-11-20T07:30:54;12.93;;;6.10;;
67554;SDS011;54385;53.516;49.456;2022-11-20T07:33:21;8.45;;;5.28;;
67554;SDS011;54385;53.516;49.456;2022-11-20T07:35:47;9.95;;;5.97;;
67554;SDS011;54385;53.516;49.456;2022-11-20T07:38:14;11.32;;;6.18;;
67554;SDS011;54385;53.516;49.456;2022-11-20T07:40:40;9.32;;;5.97;;
67554;SDS011;54385;53.516;49.456;2022-11-20T07:43:07;9.82;;;5.80;;
67554;SDS011;54385;53.516;49.456;2022-11-20T07:45:33;11.05;;;6.43;;
67554;SDS011;54385;53.516;49.456;2022-11-20T07:48:00;10.93;;;6.35;;
67554;SDS011;54385;53.516;49.456;2022-11-20T07:50:26;10.82;;;6.72;;
67554;SDS011;54385;53.516;49.456;2022-11-20T07:52:59;9.40;;;6.05;;
67554;SDS011;54385;53.516;49.456;2022-11-20T07:57:58;14.07;;;6.75;;
67554;SDS011;54385;53.516;49.456;2022-11-20T08:00:25;11.27;;;6.22;;
67554;SDS011;54385;53.516;49.456;2022-11-20T08:02:52;12.82;;;7.10;;
67554;SDS011;54385;53.516;49.456;2022-11-20T08:05:19;13.30;;;6.38;;
67554;SDS011;54385;53.516;49.456;2022-11-20T08:07:45;13.10;;;6.60;;
67554;SDS011;54385;53.516;49.456;2022-11-20T08:10:13;11.02;;;5.75;;
67554;SDS011;54385;53.516;49.456;2022-11-20T08:12:45;12.85;;;6.63;;
67554;SDS011;54385;53.516;49.456;2022-11-20T08:15:33;10.40;;;6.30;;
67554;SDS011;54385;53.516;49.456;2022-11-20T08:18:18;11.27;;;6.28;;
67554;SDS011;54385;53.516;49.456;2022-11-20T08:20:45;9.93;;;6.10;;
67554;SDS011;54385;53.516;49.456;2022-11-20T08:23:11;9.57;;;5.85;;
67554;SDS011;54385;53.516;49.456;2022-11-20T08:25:38;12.07;;;6.47;;
67554;SDS011;54385;53.516;49.456;2022-11-20T08:28:05;10.82;;;6.28;;
67554;SDS011;54385;53.516;49.456;2022-11-20T08:30:35;12.27;;;6.90;;
67554;SDS011;54385;53.516;49.456;2022-11-20T08:33:03;9.98;;;6.07;;
67554;SDS011;54385;53.516;49.456;2022-11-20T08:35:33;10.20;;;5.40;;
67554;SDS011;54385;53.516;49.456;2022-11-20T08:38:01;10.73;;;5.55;;
67554;SDS011;54385;53.516;49.456;2022-11-20T08:40:29;9.48;;;6.07;;
67554;SDS011;54385;53.516;49.456;2022-11-20T08:45:22;8.38;;;5.50;;
67554;SDS011;54385;53.516;49.456;2022-11-20T08:50:15;8.85;;;4.60;;
67554;SDS011;54385;53.516;49.456;2022-11-20T08:52:42;8.93;;;5.90;;
67554;SDS011;54385;53.516;49.456;2022-11-20T08:55:09;8.27;;;5.18;;
67554;SDS011;54385;53.516;49.456;2022-11-20T08:57:36;7.82;;;5.20;;
67554;SDS011;54385;53.516;49.456;2022-11-20T09:00:05;7.78;;;4.97;;
67554;SDS011;54385;53.516;49.456;2022-11-20T09:02:32;8.57;;;5.22;;
67554;SDS011;54385;53.516;49.456;2022-11-20T09:04:59;7.28;;;4.72;;
67554;SDS011;54385;53.516;49.456;2022-11-20T09:07:28;9.35;;;4.85;;
67554;SDS011;54385;53.516;49.456;2022-11-20T09:09:55;6.95;;;4.93;;
67554;SDS011;54385;53.516;49.456;2022-11-20T09:12:21;10.15;;;4.88;;
67554;SDS011;54385;53.516;49.456;2022-11-20T09:14:48;9.60;;;6.68;;
67554;SDS011;54385;53.516;49.456;2022-11-20T09:17:14;11.43;;;6.70;;
67554;SDS011;54385;53.516;49.456;2022-11-20T09:19:41;12.05;;;6.30;;
67554;SDS011;54385;53.516;49.456;2022-11-20T09:22:07;10.07;;;5.65;;
67554;SDS011;54385;53.516;49.456;2022-11-20T09:24:34;9.27;;;5.72;;
67554;SDS011;54385;53.516;49.456;2022-11-20T09:27:04;8.25;;;5.30;;
67554;SDS011;54385;53.516;49.456;2022-11-20T09:29:31;7.72;;;5.15;;
67554;SDS011;54385;53.516;49.456;2022-11-20T09:31:57;7.75;;;5.38;;
67554;SDS011;54385;53.516;49.456;2022-11-20T09:34:24;9.82;;;5.60;;
67554;SDS011;54385;53.516;49.456;2022-11-20T09:36:50;7.55;;;4.85;;
67554;SDS011;54385;53.516;49.456;2022-11-20T09:39:17;7.28;;;5.07;;
67554;SDS011;54385;53.516;49.456;2022-11-20T09:41:51;9.13;;;5.18;;
67554;SDS011;54385;53.516;49.456;2022-11-20T09:50:23;8.23;;;5.45;;
67554;SDS011;54385;53.516;49.456;2022-11-20T09:53:12;8.57;;;5.47;;
67554;SDS011;54385;53.516;49.456;2022-11-20T09:55:45;11.05;;;6.05;;
67554;SDS011;54385;53.516;49.456;2022-11-20T09:58:33;10.15;;;6.43;;
67554;SDS011;54385;53.516;49.456;2022-11-20T10:01:09;8.43;;;5.65;;
67554;SDS011;54385;53.516;49.456;2022-11-20T10:06:28;11.07;;;5.85;;
67554;SDS011;54385;53.516;49.456;2022-11-20T10:09:00;9.25;;;5.45;;
67554;SDS011;54385;53.516;49.456;2022-11-20T10:20:20;7.30;;;4.88;;
67554;SDS011;54385;53.516;49.456;2022-11-20T10:23:11;8.07;;;5.28;;
67554;SDS011;54385;53.516;49.456;2022-11-20T10:26:03;9.35;;;5.70;;
67554;SDS011;54385;53.516;49.456;2022-11-20T10:28:48;10.18;;;5.85;;
67554;SDS011;54385;53.516;49.456;2022-11-20T10:31:28;8.90;;;5.57;;
67554;SDS011;54385;53.516;49.456;2022-11-20T10:33:56;7.72;;;5.07;;
67554;SDS011;54385;53.516;49.456;2022-11-20T10:39:01;6.18;;;4.63;;
67554;SDS011;54385;53.516;49.456;2022-11-20T10:41:39;5.45;;;3.85;;
67554;SDS011;54385;53.516;49.456;2022-11-20T10:44:17;5.60;;;3.38;;
67554;SDS011;54385;53.516;49.456;2022-11-20T10:47:05;7.05;;;3.90;;
67554;SDS011;54385;53.516;49.456;2022-11-20T10:49:39;5.70;;;3.58;;
67554;SDS011;54385;53.516;49.456;2022-11-20T11:00:16;6.55;;;4.28;;
67554;SDS011;54385;53.516;49.456;2022-11-20T11:02:44;5.88;;;4.05;;
67554;SDS011;54385;53.516;49.456;2022-11-20T11:05:32;7.07;;;3.47;;
67554;SDS011;54385;53.516;49.456;2022-11-20T11:08:15;7.82;;;4.22;;
67554;SDS011;54385;53.516;49.456;2022-11-20T11:13:19;5.38;;;3.53;;
67554;SDS011;54385;53.516;49.456;2022-11-20T11:15:51;4.63;;;3.50;;
67554;SDS011;54385;53.516;49.456;2022-11-20T11:18:30;5.05;;;3.67;;
67554;SDS011;54385;53.516;49.456;2022-11-20T11:21:00;4.82;;;3.35;;
67554;SDS011;54385;53.516;49.456;2022-11-20T11:23:32;7.47;;;4.03;;
67554;SDS011;54385;53.516;49.456;2022-11-20T11:26:03;6.95;;;3.80;;
67554;SDS011;54385;53.516;49.456;2022-11-20T11:28:31;5.53;;;3.42;;
67554;SDS011;54385;53.516;49.456;2022-11-20T11:30:58;5.85;;;3.88;;
67554;SDS011;54385;53.516;49.456;2022-11-20T11:33:26;5.85;;;3.47;;
67554;SDS011;54385;53.516;49.456;2022-11-20T11:35:55;4.57;;;3.20;;
67554;SDS011;54385;53.516;49.456;2022-11-20T11:38:35;5.70;;;3.10;;
67554;SDS011;54385;53.516;49.456;2022-11-20T11:43:35;9.45;;;4.82;;
67554;SDS011;54385;53.516;49.456;2022-11-20T11:48:58;6.07;;;3.60;;
67554;SDS011;54385;53.516;49.456;2022-11-20T11:51:29;5.30;;;3.88;;
67554;SDS011;54385;53.516;49.456;2022-11-20T11:54:01;6.28;;;3.78;;
67554;SDS011;54385;53.516;49.456;2022-11-20T11:56:31;7.00;;;3.97;;
67554;SDS011;54385;53.516;49.456;2022-11-20T11:59:00;6.30;;;3.65;;
67554;SDS011;54385;53.516;49.456;2022-11-20T12:04:18;7.60;;;4.40;;
67554;SDS011;54385;53.516;49.456;2022-11-20T12:07:03;5.70;;;4.25;;
67554;SDS011;54385;53.516;49.456;2022-11-20T12:12:46;7.68;;;5.15;;
67554;SDS011;54385;53.516;49.456;2022-11-20T12:15:10;6.07;;;3.80;;
67554;SDS011;54385;53.516;49.456;2022-11-20T12:17:38;6.45;;;3.78;;
67554;SDS011;54385;53.516;49.456;2022-11-20T12:20:13;7.55;;;4.03;;
67554;SDS011;54385;53.516;49.456;2022-11-20T12:25:54;6.32;;;3.95;;
67554;SDS011;54385;53.516;49.456;2022-11-20T12:36:06;6.45;;;3.85;;
67554;SDS011;54385;53.516;49.456;2022-11-20T12:38:53;7.05;;;3.42;;
67554;SDS011;54385;53.516;49.456;2022-11-20T12:50:21;6.03;;;3.90;;
67554;SDS011;54385;53.516;49.456;2022-11-20T12:53:31;6.18;;;4.28;;
67554;SDS011;54385;53.516;49.456;2022-11-20T13:01:52;6.30;;;3.90;;
67554;SDS011;54385;53.516;49.456;2022-11-20T13:05:01;5.55;;;4.10;;
67554;SDS011;54385;53.516;49.456;2022-11-20T13:07:26;6.55;;;4.50;;
67554;SDS011;54385;53.516;49.456;2022-11-20T13:09:55;9.10;;;4.40;;
67554;SDS011;54385;53.516;49.456;2022-11-20T13:15:43;11.02;;;5.30;;
67554;SDS011;54385;53.516;49.456;2022-11-20T13:18:24;8.02;;;4.90;;
67554;SDS011;54385;53.516;49.456;2022-11-20T13:20:51;7.60;;;4.72;;
67554;SDS011;54385;53.516;49.456;2022-11-20T13:23:27;10.50;;;5.50;;
67554;SDS011;54385;53.516;49.456;2022-11-20T13:26:13;19.90;;;7.45;;
67554;SDS011;54385;53.516;49.456;2022-11-20T13:28:46;10.90;;;6.40;;
67554;SDS011;54385;53.516;49.456;2022-11-20T13:34:12;11.45;;;7.13;;
67554;SDS011;54385;53.516;49.456;2022-11-20T13:36:50;13.20;;;6.88;;
67554;SDS011;54385;53.516;49.456;2022-11-20T13:39:28;9.63;;;6.63;;
67554;SDS011;54385;53.516;49.456;2022-11-20T13:44:45;7.38;;;5.05;;
67554;SDS011;54385;53.516;49.456;2022-11-20T13:47:20;7.47;;;4.55;;
67554;SDS011;54385;53.516;49.456;2022-11-20T13:49:52;5.57;;;4.47;;
67554;SDS011;54385;53.516;49.456;2022-11-20T14:01:42;6.60;;;4.10;;
67554;SDS011;54385;53.516;49.456;2022-11-20T14:03:48;5.35;;;3.85;;
67554;SDS011;54385;53.516;49.456;2022-11-20T14:06:20;8.10;;;4.80;;
67554;SDS011;54385;53.516;49.456;2022-11-20T14:08:55;6.82;;;3.70;;
67554;SDS011;54385;53.516;49.456;2022-11-20T14:11:23;8.02;;;4.32;;
67554;SDS011;54385;53.516;49.456;2022-11-20T14:16:22;7.00;;;4.38;;
67554;SDS011;54385;53.516;49.456;2022-11-20T14:18:50;6.90;;;4.05;;
67554;SDS011;54385;53.516;49.456;2022-11-20T14:21:26;15.10;;;4.53;;
67554;SDS011;54385;53.516;49.456;2022-11-20T14:24:04;6.68;;;4.00;;
67554;SDS011;54385;53.516;49.456;2022-11-20T14:26:32;7.95;;;4.60;;
67554;SDS011;54385;53.516;49.456;2022-11-20T14:28:59;9.00;;;5.05;;
67554;SDS011;54385;53.516;49.456;2022-11-20T14:31:26;7.10;;;5.30;;
67554;SDS011;54385;53.516;49.456;2022-11-20T14:33:54;6.70;;;4.38;;
67554;SDS011;54385;53.516;49.456;2022-11-20T14:36:22;8.57;;;4.90;;
67554;SDS011;54385;53.516;49.456;2022-11-20T14:38:50;8.90;;;5.03;;
67554;SDS011;54385;53.516;49.456;2022-11-20T14:41:19;8.27;;;5.43;;
67554;SDS011;54385;53.516;49.456;2022-11-20T14:43:58;9.98;;;5.57;;
67554;SDS011;54385;53.516;49.456;2022-11-20T14:46:27;9.05;;;4.70;;
67554;SDS011;54385;53.516;49.456;2022-11-20T14:48:56;7.60;;;4.78;;
67554;SDS011;54385;53.516;49.456;2022-11-20T14:51:31;10.43;;;6.00;;
67554;SDS011;54385;53.516;49.456;2022-11-20T14:54:17;10.05;;;6.75;;
67554;SDS011;54385;53.516;49.456;2022-11-20T14:59:31;8.98;;;4.85;;
67554;SDS011;54385;53.516;49.456;2022-11-20T15:02:02;10.23;;;6.07;;
67554;SDS011;54385;53.516;49.456;2022-11-20T15:04:29;9.23;;;5.78;;
67554;SDS011;54385;53.516;49.456;2022-11-20T15:06:58;10.13;;;6.18;;
67554;SDS011;54385;53.516;49.456;2022-11-20T15:09:25;9.65;;;6.05;;
67554;SDS011;54385;53.516;49.456;2022-11-20T15:11:54;13.55;;;7.10;;
67554;SDS011;54385;53.516;49.456;2022-11-20T15:14:23;11.70;;;7.10;;
67554;SDS011;54385;53.516;49.456;2022-11-20T15:16:51;13.02;;;7.90;;
67554;SDS011;54385;53.516;49.456;2022-11-20T15:19:23;15.45;;;8.23;;
67554;SDS011;54385;53.516;49.456;2022-11-20T15:24:18;15.88;;;9.25;;
67554;SDS011;54385;53.516;49.456;2022-11-20T15:26:45;18.40;;;10.25;;
67554;SDS011;54385;53.516;49.456;2022-11-20T15:29:12;19.00;;;10.00;;
67554;SDS011;54385;53.516;49.456;2022-11-20T15:31:44;19.05;;;10.73;;
67554;SDS011;54385;53.516;49.456;2022-11-20T15:34:11;23.65;;;11.35;;
67554;SDS011;54385;53.516;49.456;2022-11-20T15:36:39;18.63;;;9.93;;
67554;SDS011;54385;53.516;49.456;2022-11-20T15:39:06;23.00;;;11.20;;
67554;SDS011;54385;53.516;49.456;2022-11-20T15:41:36;24.77;;;10.80;;
67554;SDS011;54385;53.516;49.456;2022-11-20T15:44:04;22.90;;;11.38;;
67554;SDS011;54385;53.516;49.456;2022-11-20T15:46:31;21.33;;;10.07;;
67554;SDS011;54385;53.516;49.456;2022-11-20T15:49:03;21.17;;;10.32;;
67554;SDS011;54385;53.516;49.456;2022-11-20T15:51:31;22.13;;;10.30;;
67554;SDS011;54385;53.516;49.456;2022-11-20T15:54:09;20.08;;;9.65;;
67554;SDS011;54385;53.516;49.456;2022-11-20T15:56:47;18.58;;;9.95;;
67554;SDS011;54385;53.516;49.456;2022-11-20T15:59:14;20.92;;;9.93;;
67554;SDS011;54385;53.516;49.456;2022-11-20T16:01:41;18.75;;;10.65;;
67554;SDS011;54385;53.516;49.456;2022-11-20T16:04:09;20.65;;;9.90;;
67554;SDS011;54385;53.516;49.456;2022-11-20T16:06:40;17.80;;;8.20;;
67554;SDS011;54385;53.516;49.456;2022-11-20T16:09:09;15.63;;;8.63;;
67554;SDS011;54385;53.516;49.456;2022-11-20T16:14:03;13.93;;;7.97;;
67554;SDS011;54385;53.516;49.456;2022-11-20T16:16:48;14.93;;;7.85;;
67554;SDS011;54385;53.516;49.456;2022-11-20T16:19:15;16.25;;;8.35;;
67554;SDS011;54385;53.516;49.456;2022-11-20T16:21:43;13.25;;;7.35;;
67554;SDS011;54385;53.516;49.456;2022-11-20T16:26:38;12.70;;;7.90;;
67554;SDS011;54385;53.516;49.456;2022-11-20T16:29:05;17.25;;;8.45;;
67554;SDS011;54385;53.516;49.456;2022-11-20T16:31:32;16.52;;;8.73;;
67554;SDS011;54385;53.516;49.456;2022-11-20T16:34:01;17.20;;;8.18;;
67554;SDS011;54385;53.516;49.456;2022-11-20T16:36:29;15.77;;;8.52;;
67554;SDS011;54385;53.516;49.456;2022-11-20T16:38:57;15.50;;;7.85;;
67554;SDS011;54385;53.516;49.456;2022-11-20T16:41:26;11.98;;;7.93;;
67554;SDS011;54385;53.516;49.456;2022-11-20T16:43:55;16.33;;;8.00;;
67554;SDS011;54385;53.516;49.456;2022-11-20T16:46:24;13.93;;;8.10;;
67554;SDS011;54385;53.516;49.456;2022-11-20T16:48:53;16.50;;;8.45;;
67554;SDS011;54385;53.516;49.456;2022-11-20T16:51:21;13.68;;;8.00;;
67554;SDS011;54385;53.516;49.456;2022-11-20T16:53:48;13.18;;;7.35;;
67554;SDS011;54385;53.516;49.456;2022-11-20T16:58:47;12.82;;;7.82;;